sensor_id;sensor_type;location;lat;lon;timestamp;temperature;humidity
19050;DHT22;9657;45.940;12.840;2022-08-21T00:01:46;27.50;50.70
19050;DHT22;9657;45.940;12.840;2022-08-21T00:04:15;27.50;50.70
19050;DHT22;9657;45.940;12.840;2022-08-21T00:06:42;27.40;50.70
19050;DHT22;9657;45.940;12.840;2022-08-21T00:09:09;27.40;50.70
19050;DHT22;9657;45.940;12.840;2022-08-21T00:11:38;27.40;50.70
19050;DHT22;9657;45.940;12.840;2022-08-21T00:14:07;27.50;50.70
19050;DHT22;9657;45.940;12.840;2022-08-21T00:16:35;27.50;50.80
19050;DHT22;9657;45.940;12.840;2022-08-21T00:19:02;27.50;50.80
19050;DHT22;9657;45.940;12.840;2022-08-21T00:21:31;27.50;50.80
19050;DHT22;9657;45.940;12.840;2022-08-21T00:23:58;27.50;50.80
19050;DHT22;9657;45.940;12.840;2022-08-21T00:26:25;27.40;50.70
19050;DHT22;9657;45.940;12.840;2022-08-21T00:28:52;27.40;50.70
19050;DHT22;9657;45.940;12.840;2022-08-21T00:31:20;27.40;50.70
19050;DHT22;9657;45.940;12.840;2022-08-21T00:33:47;27.40;50.70
19050;DHT22;9657;45.940;12.840;2022-08-21T00:36:15;27.40;50.70
19050;DHT22;9657;45.940;12.840;2022-08-21T00:38:43;27.40;50.70
19050;DHT22;9657;45.940;12.840;2022-08-21T00:41:11;27.40;50.80
19050;DHT22;9657;45.940;12.840;2022-08-21T00:43:39;27.40;50.80
19050;DHT22;9657;45.940;12.840;2022-08-21T00:46:07;27.40;50.80
19050;DHT22;9657;45.940;12.840;2022-08-21T00:48:34;27.40;50.80
19050;DHT22;9657;45.940;12.840;2022-08-21T00:51:05;27.40;50.80
19050;DHT22;9657;45.940;12.840;2022-08-21T00:53:36;27.40;50.80
19050;DHT22;9657;45.940;12.840;2022-08-21T00:56:07;27.40;50.80
19050;DHT22;9657;45.940;12.840;2022-08-21T00:58:36;27.40;50.80
19050;DHT22;9657;45.940;12.840;2022-08-21T01:03:39;27.40;51.10
19050;DHT22;9657;45.940;12.840;2022-08-21T01:06:08;27.40;50.80
19050;DHT22;9657;45.940;12.840;2022-08-21T01:08:35;27.40;50.80
19050;DHT22;9657;45.940;12.840;2022-08-21T01:11:03;27.40;51.10
19050;DHT22;9657;45.940;12.840;2022-08-21T01:13:35;27.40;50.80
19050;DHT22;9657;45.940;12.840;2022-08-21T01:16:08;27.40;50.80
19050;DHT22;9657;45.940;12.840;2022-08-21T01:18:36;27.40;50.80
19050;DHT22;9657;45.940;12.840;2022-08-21T01:21:07;27.40;50.80
19050;DHT22;9657;45.940;12.840;2022-08-21T01:23:35;27.40;50.80
19050;DHT22;9657;45.940;12.840;2022-08-21T01:26:04;27.40;50.80
19050;DHT22;9657;45.940;12.840;2022-08-21T01:28:34;27.40;50.80
19050;DHT22;9657;45.940;12.840;2022-08-21T01:31:05;27.40;50.80
19050;DHT22;9657;45.940;12.840;2022-08-21T01:33:34;27.40;50.80
19050;DHT22;9657;45.940;12.840;2022-08-21T01:36:01;27.40;50.80
19050;DHT22;9657;45.940;12.840;2022-08-21T01:38:30;27.40;50.80
19050;DHT22;9657;45.940;12.840;2022-08-21T01:40:57;27.40;50.90
19050;DHT22;9657;45.940;12.840;2022-08-21T01:43:24;27.40;50.90
19050;DHT22;9657;45.940;12.840;2022-08-21T01:45:51;27.40;50.90
19050;DHT22;9657;45.940;12.840;2022-08-21T01:48:18;27.40;51.50
19050;DHT22;9657;45.940;12.840;2022-08-21T01:50:45;27.30;50.90
19050;DHT22;9657;45.940;12.840;2022-08-21T01:53:12;27.30;50.80
19050;DHT22;9657;45.940;12.840;2022-08-21T01:55:42;27.40;50.90
19050;DHT22;9657;45.940;12.840;2022-08-21T01:58:09;27.40;50.90
19050;DHT22;9657;45.940;12.840;2022-08-21T02:00:36;27.30;50.80
19050;DHT22;9657;45.940;12.840;2022-08-21T02:03:03;27.30;50.90
19050;DHT22;9657;45.940;12.840;2022-08-21T02:05:31;27.30;50.90
19050;DHT22;9657;45.940;12.840;2022-08-21T02:07:58;27.30;50.90
19050;DHT22;9657;45.940;12.840;2022-08-21T02:10:27;27.30;50.90
19050;DHT22;9657;45.940;12.840;2022-08-21T02:12:58;27.30;50.90
19050;DHT22;9657;45.940;12.840;2022-08-21T02:15:26;27.30;50.90
19050;DHT22;9657;45.940;12.840;2022-08-21T02:17:55;27.30;50.90
19050;DHT22;9657;45.940;12.840;2022-08-21T02:20:24;27.30;50.90
19050;DHT22;9657;45.940;12.840;2022-08-21T02:22:52;27.30;50.90
19050;DHT22;9657;45.940;12.840;2022-08-21T02:25:22;27.30;50.90
19050;DHT22;9657;45.940;12.840;2022-08-21T02:27:49;27.30;51.00
19050;DHT22;9657;45.940;12.840;2022-08-21T02:30:20;27.30;51.00
19050;DHT22;9657;45.940;12.840;2022-08-21T02:32:47;27.30;51.00
19050;DHT22;9657;45.940;12.840;2022-08-21T02:35:14;27.30;51.00
19050;DHT22;9657;45.940;12.840;2022-08-21T02:37:47;27.30;51.00
19050;DHT22;9657;45.940;12.840;2022-08-21T02:40:16;27.30;51.00
19050;DHT22;9657;45.940;12.840;2022-08-21T02:42:43;27.30;51.00
19050;DHT22;9657;45.940;12.840;2022-08-21T02:45:11;27.30;51.00
19050;DHT22;9657;45.940;12.840;2022-08-21T02:47:40;27.30;51.00
19050;DHT22;9657;45.940;12.840;2022-08-21T02:50:13;27.30;51.00
19050;DHT22;9657;45.940;12.840;2022-08-21T02:52:40;27.30;51.00
19050;DHT22;9657;45.940;12.840;2022-08-21T02:55:07;27.30;51.10
19050;DHT22;9657;45.940;12.840;2022-08-21T02:57:34;27.30;51.10
19050;DHT22;9657;45.940;12.840;2022-08-21T03:00:02;27.30;51.10
19050;DHT22;9657;45.940;12.840;2022-08-21T03:02:29;27.20;51.00
19050;DHT22;9657;45.940;12.840;2022-08-21T03:04:58;27.30;51.10
19050;DHT22;9657;45.940;12.840;2022-08-21T03:07:25;27.30;51.10
19050;DHT22;9657;45.940;12.840;2022-08-21T03:09:52;27.30;51.10
19050;DHT22;9657;45.940;12.840;2022-08-21T03:12:19;27.30;51.10
19050;DHT22;9657;45.940;12.840;2022-08-21T03:14:46;27.30;51.10
19050;DHT22;9657;45.940;12.840;2022-08-21T03:17:13;27.30;51.10
19050;DHT22;9657;45.940;12.840;2022-08-21T03:19:40;27.30;51.10
19050;DHT22;9657;45.940;12.840;2022-08-21T03:22:08;27.30;51.10
19050;DHT22;9657;45.940;12.840;2022-08-21T03:24:35;27.30;51.10
19050;DHT22;9657;45.940;12.840;2022-08-21T03:27:03;27.30;51.10
19050;DHT22;9657;45.940;12.840;2022-08-21T03:29:30;27.20;51.10
19050;DHT22;9657;45.940;12.840;2022-08-21T03:31:57;27.30;51.10
19050;DHT22;9657;45.940;12.840;2022-08-21T03:34:25;27.30;51.10
19050;DHT22;9657;45.940;12.840;2022-08-21T03:36:52;27.30;51.10
19050;DHT22;9657;45.940;12.840;2022-08-21T03:39:20;27.20;51.10
19050;DHT22;9657;45.940;12.840;2022-08-21T03:41:47;27.20;51.10
19050;DHT22;9657;45.940;12.840;2022-08-21T03:44:14;27.20;51.10
19050;DHT22;9657;45.940;12.840;2022-08-21T03:46:41;27.20;51.10
19050;DHT22;9657;45.940;12.840;2022-08-21T03:49:09;27.20;51.10
19050;DHT22;9657;45.940;12.840;2022-08-21T03:51:36;27.20;51.10
19050;DHT22;9657;45.940;12.840;2022-08-21T03:54:03;27.20;51.10
19050;DHT22;9657;45.940;12.840;2022-08-21T03:56:31;27.20;51.20
19050;DHT22;9657;45.940;12.840;2022-08-21T03:58:58;27.20;51.20
19050;DHT22;9657;45.940;12.840;2022-08-21T04:01:26;27.20;51.20
19050;DHT22;9657;45.940;12.840;2022-08-21T04:03:53;27.20;51.20
19050;DHT22;9657;45.940;12.840;2022-08-21T04:06:20;27.20;51.20
19050;DHT22;9657;45.940;12.840;2022-08-21T04:08:47;27.20;51.20
19050;DHT22;9657;45.940;12.840;2022-08-21T04:11:14;27.20;51.20
19050;DHT22;9657;45.940;12.840;2022-08-21T04:13:43;27.20;51.20
19050;DHT22;9657;45.940;12.840;2022-08-21T04:16:10;27.20;51.20
19050;DHT22;9657;45.940;12.840;2022-08-21T04:18:37;27.20;51.20
19050;DHT22;9657;45.940;12.840;2022-08-21T04:21:05;27.20;51.10
19050;DHT22;9657;45.940;12.840;2022-08-21T04:23:33;27.20;51.10
19050;DHT22;9657;45.940;12.840;2022-08-21T04:26:00;27.20;51.10
19050;DHT22;9657;45.940;12.840;2022-08-21T04:28:27;27.20;51.10
19050;DHT22;9657;45.940;12.840;2022-08-21T04:30:56;27.20;51.10
19050;DHT22;9657;45.940;12.840;2022-08-21T04:33:23;27.20;51.10
19050;DHT22;9657;45.940;12.840;2022-08-21T04:35:51;27.20;51.10
19050;DHT22;9657;45.940;12.840;2022-08-21T04:38:18;27.10;51.00
19050;DHT22;9657;45.940;12.840;2022-08-21T04:40:46;27.20;51.00
19050;DHT22;9657;45.940;12.840;2022-08-21T04:43:14;27.20;51.10
19050;DHT22;9657;45.940;12.840;2022-08-21T04:45:42;27.20;51.00
19050;DHT22;9657;45.940;12.840;2022-08-21T04:48:13;27.10;51.00
19050;DHT22;9657;45.940;12.840;2022-08-21T04:50:43;27.20;51.00
19050;DHT22;9657;45.940;12.840;2022-08-21T04:53:15;27.20;51.00
19050;DHT22;9657;45.940;12.840;2022-08-21T04:55:43;27.20;51.00
19050;DHT22;9657;45.940;12.840;2022-08-21T04:58:11;27.20;51.00
19050;DHT22;9657;45.940;12.840;2022-08-21T05:00:40;27.10;50.90
19050;DHT22;9657;45.940;12.840;2022-08-21T05:03:11;27.10;50.90
19050;DHT22;9657;45.940;12.840;2022-08-21T05:05:39;27.10;50.90
19050;DHT22;9657;45.940;12.840;2022-08-21T05:08:07;27.10;50.90
19050;DHT22;9657;45.940;12.840;2022-08-21T05:10:38;27.10;50.90
19050;DHT22;9657;45.940;12.840;2022-08-21T05:13:06;27.10;50.80
19050;DHT22;9657;45.940;12.840;2022-08-21T05:15:33;27.10;50.90
19050;DHT22;9657;45.940;12.840;2022-08-21T05:18:00;27.10;50.90
19050;DHT22;9657;45.940;12.840;2022-08-21T05:20:29;27.10;50.90
19050;DHT22;9657;45.940;12.840;2022-08-21T05:22:56;27.10;50.90
19050;DHT22;9657;45.940;12.840;2022-08-21T05:25:24;27.10;50.90
19050;DHT22;9657;45.940;12.840;2022-08-21T05:27:51;27.10;51.60
19050;DHT22;9657;45.940;12.840;2022-08-21T05:30:19;27.10;50.90
19050;DHT22;9657;45.940;12.840;2022-08-21T05:32:46;27.10;50.80
19050;DHT22;9657;45.940;12.840;2022-08-21T05:35:14;27.10;50.90
19050;DHT22;9657;45.940;12.840;2022-08-21T05:37:42;27.10;50.80
19050;DHT22;9657;45.940;12.840;2022-08-21T05:40:10;27.10;50.80
19050;DHT22;9657;45.940;12.840;2022-08-21T05:42:37;27.10;50.80
19050;DHT22;9657;45.940;12.840;2022-08-21T05:45:05;27.10;50.80
19050;DHT22;9657;45.940;12.840;2022-08-21T05:47:32;27.10;50.80
19050;DHT22;9657;45.940;12.840;2022-08-21T05:49:59;27.10;50.80
19050;DHT22;9657;45.940;12.840;2022-08-21T05:52:26;27.10;50.80
19050;DHT22;9657;45.940;12.840;2022-08-21T05:54:55;27.10;50.80
19050;DHT22;9657;45.940;12.840;2022-08-21T05:57:22;27.10;50.80
19050;DHT22;9657;45.940;12.840;2022-08-21T05:59:51;27.10;50.80
19050;DHT22;9657;45.940;12.840;2022-08-21T06:02:19;27.10;50.80
19050;DHT22;9657;45.940;12.840;2022-08-21T06:04:46;27.10;50.80
19050;DHT22;9657;45.940;12.840;2022-08-21T06:07:13;27.10;50.80
19050;DHT22;9657;45.940;12.840;2022-08-21T06:09:41;27.10;50.80
19050;DHT22;9657;45.940;12.840;2022-08-21T06:12:11;27.10;50.80
19050;DHT22;9657;45.940;12.840;2022-08-21T06:14:39;27.10;50.80
19050;DHT22;9657;45.940;12.840;2022-08-21T06:17:09;27.10;50.80
19050;DHT22;9657;45.940;12.840;2022-08-21T06:19:36;27.10;50.80
19050;DHT22;9657;45.940;12.840;2022-08-21T06:22:04;27.10;50.80
19050;DHT22;9657;45.940;12.840;2022-08-21T06:24:31;27.10;50.80
19050;DHT22;9657;45.940;12.840;2022-08-21T06:27:03;27.10;50.80
19050;DHT22;9657;45.940;12.840;2022-08-21T06:29:32;27.10;50.80
19050;DHT22;9657;45.940;12.840;2022-08-21T06:31:59;27.10;50.80
19050;DHT22;9657;45.940;12.840;2022-08-21T06:34:26;27.10;50.80
19050;DHT22;9657;45.940;12.840;2022-08-21T06:36:53;27.10;50.80
19050;DHT22;9657;45.940;12.840;2022-08-21T06:39:20;27.10;50.80
19050;DHT22;9657;45.940;12.840;2022-08-21T06:41:47;27.10;50.80
19050;DHT22;9657;45.940;12.840;2022-08-21T06:44:16;27.10;50.80
19050;DHT22;9657;45.940;12.840;2022-08-21T06:46:45;27.10;50.80
19050;DHT22;9657;45.940;12.840;2022-08-21T06:49:12;27.10;50.80
19050;DHT22;9657;45.940;12.840;2022-08-21T06:51:39;27.10;50.80
19050;DHT22;9657;45.940;12.840;2022-08-21T06:54:06;27.10;50.80
19050;DHT22;9657;45.940;12.840;2022-08-21T06:56:34;27.10;50.80
19050;DHT22;9657;45.940;12.840;2022-08-21T06:59:03;27.10;50.80
19050;DHT22;9657;45.940;12.840;2022-08-21T07:01:32;27.10;50.80
19050;DHT22;9657;45.940;12.840;2022-08-21T07:04:00;27.10;50.80
19050;DHT22;9657;45.940;12.840;2022-08-21T07:06:27;27.10;50.80
19050;DHT22;9657;45.940;12.840;2022-08-21T07:08:55;27.10;50.90
19050;DHT22;9657;45.940;12.840;2022-08-21T07:11:23;27.10;50.90
19050;DHT22;9657;45.940;12.840;2022-08-21T07:13:51;27.10;50.90
19050;DHT22;9657;45.940;12.840;2022-08-21T07:16:20;27.10;50.90
19050;DHT22;9657;45.940;12.840;2022-08-21T07:18:47;27.00;50.90
19050;DHT22;9657;45.940;12.840;2022-08-21T07:21:16;27.10;50.90
19050;DHT22;9657;45.940;12.840;2022-08-21T07:23:46;27.10;50.90
19050;DHT22;9657;45.940;12.840;2022-08-21T07:26:14;27.10;51.00
19050;DHT22;9657;45.940;12.840;2022-08-21T07:28:41;27.10;51.00
19050;DHT22;9657;45.940;12.840;2022-08-21T07:31:09;27.10;51.00
19050;DHT22;9657;45.940;12.840;2022-08-21T07:33:39;27.00;50.90
19050;DHT22;9657;45.940;12.840;2022-08-21T07:36:07;27.10;51.00
19050;DHT22;9657;45.940;12.840;2022-08-21T07:38:36;27.10;51.00
19050;DHT22;9657;45.940;12.840;2022-08-21T07:41:15;27.10;51.00
19050;DHT22;9657;45.940;12.840;2022-08-21T07:43:43;27.10;51.20
19050;DHT22;9657;45.940;12.840;2022-08-21T07:46:11;27.10;51.00
19050;DHT22;9657;45.940;12.840;2022-08-21T07:48:38;27.10;51.10
19050;DHT22;9657;45.940;12.840;2022-08-21T07:51:08;27.10;51.00
19050;DHT22;9657;45.940;12.840;2022-08-21T07:53:38;27.10;51.00
19050;DHT22;9657;45.940;12.840;2022-08-21T07:56:06;27.10;51.10
19050;DHT22;9657;45.940;12.840;2022-08-21T07:58:33;27.10;51.00
19050;DHT22;9657;45.940;12.840;2022-08-21T08:01:01;27.10;51.10
19050;DHT22;9657;45.940;12.840;2022-08-21T08:03:28;27.10;51.00
19050;DHT22;9657;45.940;12.840;2022-08-21T08:05:55;27.00;51.00
19050;DHT22;9657;45.940;12.840;2022-08-21T08:08:23;27.10;51.10
19050;DHT22;9657;45.940;12.840;2022-08-21T08:10:52;27.10;51.10
19050;DHT22;9657;45.940;12.840;2022-08-21T08:13:19;27.10;51.10
19050;DHT22;9657;45.940;12.840;2022-08-21T08:15:46;27.10;51.10
19050;DHT22;9657;45.940;12.840;2022-08-21T08:18:13;27.10;51.00
19050;DHT22;9657;45.940;12.840;2022-08-21T08:20:41;27.10;51.00
19050;DHT22;9657;45.940;12.840;2022-08-21T08:23:10;27.10;51.10
19050;DHT22;9657;45.940;12.840;2022-08-21T08:25:37;27.10;51.00
19050;DHT22;9657;45.940;12.840;2022-08-21T08:28:06;27.10;51.20
19050;DHT22;9657;45.940;12.840;2022-08-21T08:30:33;27.10;51.00
19050;DHT22;9657;45.940;12.840;2022-08-21T08:33:00;27.10;51.10
19050;DHT22;9657;45.940;12.840;2022-08-21T08:35:27;27.10;51.10
19050;DHT22;9657;45.940;12.840;2022-08-21T08:37:55;27.10;51.00
19050;DHT22;9657;45.940;12.840;2022-08-21T08:40:31;27.10;51.00
19050;DHT22;9657;45.940;12.840;2022-08-21T08:43:01;27.10;51.10
19050;DHT22;9657;45.940;12.840;2022-08-21T08:45:33;27.10;51.00
19050;DHT22;9657;45.940;12.840;2022-08-21T08:48:04;27.10;51.00
19050;DHT22;9657;45.940;12.840;2022-08-21T08:50:39;27.10;51.10
19050;DHT22;9657;45.940;12.840;2022-08-21T08:53:12;27.10;51.00
19050;DHT22;9657;45.940;12.840;2022-08-21T08:55:43;27.10;51.00
19050;DHT22;9657;45.940;12.840;2022-08-21T08:58:13;27.10;51.00
19050;DHT22;9657;45.940;12.840;2022-08-21T09:00:43;27.20;51.10
19050;DHT22;9657;45.940;12.840;2022-08-21T09:03:12;27.20;51.10
19050;DHT22;9657;45.940;12.840;2022-08-21T09:05:43;27.20;51.00
19050;DHT22;9657;45.940;12.840;2022-08-21T09:08:25;27.20;51.00
19050;DHT22;9657;45.940;12.840;2022-08-21T09:11:00;27.20;51.00
19050;DHT22;9657;45.940;12.840;2022-08-21T09:13:39;27.20;51.00
19050;DHT22;9657;45.940;12.840;2022-08-21T09:16:16;27.20;50.90
19050;DHT22;9657;45.940;12.840;2022-08-21T09:18:56;27.20;50.90
19050;DHT22;9657;45.940;12.840;2022-08-21T09:21:30;27.30;50.90
19050;DHT22;9657;45.940;12.840;2022-08-21T09:24:08;27.40;50.80
19050;DHT22;9657;45.940;12.840;2022-08-21T09:26:47;27.40;50.80
19050;DHT22;9657;45.940;12.840;2022-08-21T09:29:17;27.40;50.70
19050;DHT22;9657;45.940;12.840;2022-08-21T09:31:47;27.50;50.60
19050;DHT22;9657;45.940;12.840;2022-08-21T09:34:25;27.50;50.50
19050;DHT22;9657;45.940;12.840;2022-08-21T09:36:52;27.60;50.40
19050;DHT22;9657;45.940;12.840;2022-08-21T09:39:25;27.60;50.20
19050;DHT22;9657;45.940;12.840;2022-08-21T09:41:57;27.70;50.20
19050;DHT22;9657;45.940;12.840;2022-08-21T09:44:26;27.70;50.00
19050;DHT22;9657;45.940;12.840;2022-08-21T09:46:55;27.80;50.00
19050;DHT22;9657;45.940;12.840;2022-08-21T09:49:30;27.80;49.70
19050;DHT22;9657;45.940;12.840;2022-08-21T09:51:58;27.80;49.70
19050;DHT22;9657;45.940;12.840;2022-08-21T09:54:29;27.80;49.70
19050;DHT22;9657;45.940;12.840;2022-08-21T09:56:59;27.90;49.80
19050;DHT22;9657;45.940;12.840;2022-08-21T09:59:46;27.90;49.70
19050;DHT22;9657;45.940;12.840;2022-08-21T10:02:28;27.90;49.70
19050;DHT22;9657;45.940;12.840;2022-08-21T10:04:58;27.90;49.60
19050;DHT22;9657;45.940;12.840;2022-08-21T10:07:28;27.90;49.50
19050;DHT22;9657;45.940;12.840;2022-08-21T10:10:03;27.90;49.50
19050;DHT22;9657;45.940;12.840;2022-08-21T10:12:38;28.00;49.50
19050;DHT22;9657;45.940;12.840;2022-08-21T10:15:13;28.00;49.50
19050;DHT22;9657;45.940;12.840;2022-08-21T10:17:52;28.00;49.50
19050;DHT22;9657;45.940;12.840;2022-08-21T10:20:23;28.00;49.40
19050;DHT22;9657;45.940;12.840;2022-08-21T10:23:02;28.00;49.50
19050;DHT22;9657;45.940;12.840;2022-08-21T10:25:35;28.00;49.70
19050;DHT22;9657;45.940;12.840;2022-08-21T10:28:09;28.00;49.40
19050;DHT22;9657;45.940;12.840;2022-08-21T10:30:42;28.00;49.40
19050;DHT22;9657;45.940;12.840;2022-08-21T10:33:28;28.00;49.40
19050;DHT22;9657;45.940;12.840;2022-08-21T10:36:04;28.00;49.40
19050;DHT22;9657;45.940;12.840;2022-08-21T10:38:54;28.00;49.40
19050;DHT22;9657;45.940;12.840;2022-08-21T10:41:30;28.00;50.10
19050;DHT22;9657;45.940;12.840;2022-08-21T10:44:08;28.00;49.40
19050;DHT22;9657;45.940;12.840;2022-08-21T10:46:46;28.00;50.10
19050;DHT22;9657;45.940;12.840;2022-08-21T10:49:22;28.00;49.40
19050;DHT22;9657;45.940;12.840;2022-08-21T10:51:58;28.00;49.50
19050;DHT22;9657;45.940;12.840;2022-08-21T10:54:35;28.00;49.50
19050;DHT22;9657;45.940;12.840;2022-08-21T10:57:11;28.00;49.50
19050;DHT22;9657;45.940;12.840;2022-08-21T10:59:44;28.00;49.50
19050;DHT22;9657;45.940;12.840;2022-08-21T11:02:17;28.00;49.50
19050;DHT22;9657;45.940;12.840;2022-08-21T11:04:52;28.00;49.50
19050;DHT22;9657;45.940;12.840;2022-08-21T11:07:24;28.00;49.50
19050;DHT22;9657;45.940;12.840;2022-08-21T11:09:55;28.00;49.60
19050;DHT22;9657;45.940;12.840;2022-08-21T11:12:28;28.00;49.60
19050;DHT22;9657;45.940;12.840;2022-08-21T11:15:01;28.00;49.60
19050;DHT22;9657;45.940;12.840;2022-08-21T11:17:33;28.00;49.60
19050;DHT22;9657;45.940;12.840;2022-08-21T11:20:08;28.00;49.60
19050;DHT22;9657;45.940;12.840;2022-08-21T11:22:41;28.00;49.70
19050;DHT22;9657;45.940;12.840;2022-08-21T11:25:15;28.00;49.70
19050;DHT22;9657;45.940;12.840;2022-08-21T11:27:46;28.00;49.70
19050;DHT22;9657;45.940;12.840;2022-08-21T11:30:15;28.00;49.70
19050;DHT22;9657;45.940;12.840;2022-08-21T11:33:09;28.00;49.70
19050;DHT22;9657;45.940;12.840;2022-08-21T11:35:46;28.00;49.70
19050;DHT22;9657;45.940;12.840;2022-08-21T11:38:26;28.00;49.80
19050;DHT22;9657;45.940;12.840;2022-08-21T11:41:05;28.00;49.80
19050;DHT22;9657;45.940;12.840;2022-08-21T11:43:38;28.00;49.90
19050;DHT22;9657;45.940;12.840;2022-08-21T11:46:19;28.00;49.80
19050;DHT22;9657;45.940;12.840;2022-08-21T11:52:07;28.00;49.90
19050;DHT22;9657;45.940;12.840;2022-08-21T11:54:40;28.00;49.90
19050;DHT22;9657;45.940;12.840;2022-08-21T11:57:16;28.00;49.90
19050;DHT22;9657;45.940;12.840;2022-08-21T11:59:48;28.00;49.90
19050;DHT22;9657;45.940;12.840;2022-08-21T12:02:21;28.00;49.90
19050;DHT22;9657;45.940;12.840;2022-08-21T12:04:53;28.00;49.90
19050;DHT22;9657;45.940;12.840;2022-08-21T12:07:33;28.00;49.90
19050;DHT22;9657;45.940;12.840;2022-08-21T12:10:00;28.00;49.90
19050;DHT22;9657;45.940;12.840;2022-08-21T12:12:30;28.00;49.90
19050;DHT22;9657;45.940;12.840;2022-08-21T12:15:25;28.00;49.90
19050;DHT22;9657;45.940;12.840;2022-08-21T12:17:59;28.00;49.90
19050;DHT22;9657;45.940;12.840;2022-08-21T12:20:40;28.00;49.90
19050;DHT22;9657;45.940;12.840;2022-08-21T12:23:19;28.00;49.90
19050;DHT22;9657;45.940;12.840;2022-08-21T12:28:45;28.00;49.90
19050;DHT22;9657;45.940;12.840;2022-08-21T12:31:21;28.00;49.90
19050;DHT22;9657;45.940;12.840;2022-08-21T12:33:54;28.00;50.60
19050;DHT22;9657;45.940;12.840;2022-08-21T12:36:24;28.00;49.90
19050;DHT22;9657;45.940;12.840;2022-08-21T12:38:56;28.00;49.90
19050;DHT22;9657;45.940;12.840;2022-08-21T12:41:27;28.00;50.00
19050;DHT22;9657;45.940;12.840;2022-08-21T12:43:58;28.00;50.00
19050;DHT22;9657;45.940;12.840;2022-08-21T12:46:31;28.00;50.00
19050;DHT22;9657;45.940;12.840;2022-08-21T12:49:03;28.00;50.00
19050;DHT22;9657;45.940;12.840;2022-08-21T12:51:38;28.00;50.00
19050;DHT22;9657;45.940;12.840;2022-08-21T12:54:22;28.00;50.10
19050;DHT22;9657;45.940;12.840;2022-08-21T12:56:57;28.00;50.00
19050;DHT22;9657;45.940;12.840;2022-08-21T12:59:24;28.00;50.00
19050;DHT22;9657;45.940;12.840;2022-08-21T13:01:52;28.00;50.00
19050;DHT22;9657;45.940;12.840;2022-08-21T13:04:22;28.00;50.00
19050;DHT22;9657;45.940;12.840;2022-08-21T13:06:54;28.00;50.00
19050;DHT22;9657;45.940;12.840;2022-08-21T13:09:28;28.00;50.00
19050;DHT22;9657;45.940;12.840;2022-08-21T13:11:56;28.00;50.00
19050;DHT22;9657;45.940;12.840;2022-08-21T13:14:28;28.00;50.00
19050;DHT22;9657;45.940;12.840;2022-08-21T13:16:57;28.00;50.00
19050;DHT22;9657;45.940;12.840;2022-08-21T13:19:25;28.00;50.00
19050;DHT22;9657;45.940;12.840;2022-08-21T13:21:53;28.00;50.00
19050;DHT22;9657;45.940;12.840;2022-08-21T13:24:22;28.00;50.00
19050;DHT22;9657;45.940;12.840;2022-08-21T13:26:51;28.00;50.00
19050;DHT22;9657;45.940;12.840;2022-08-21T13:29:22;28.00;50.00
19050;DHT22;9657;45.940;12.840;2022-08-21T13:31:52;28.00;50.00
19050;DHT22;9657;45.940;12.840;2022-08-21T13:34:21;28.00;50.00
19050;DHT22;9657;45.940;12.840;2022-08-21T13:36:52;28.00;50.00
19050;DHT22;9657;45.940;12.840;2022-08-21T13:39:21;28.00;50.00
19050;DHT22;9657;45.940;12.840;2022-08-21T13:41:53;28.00;50.10
19050;DHT22;9657;45.940;12.840;2022-08-21T13:44:23;28.00;50.00
19050;DHT22;9657;45.940;12.840;2022-08-21T13:46:53;28.10;50.20
19050;DHT22;9657;45.940;12.840;2022-08-21T13:49:25;28.10;50.20
19050;DHT22;9657;45.940;12.840;2022-08-21T13:51:53;28.10;50.20
19050;DHT22;9657;45.940;12.840;2022-08-21T13:54:23;28.10;50.20
19050;DHT22;9657;45.940;12.840;2022-08-21T13:56:53;28.10;50.20
19050;DHT22;9657;45.940;12.840;2022-08-21T13:59:25;28.00;50.20
19050;DHT22;9657;45.940;12.840;2022-08-21T14:01:55;28.10;50.20
19050;DHT22;9657;45.940;12.840;2022-08-21T14:04:33;28.00;50.20
19050;DHT22;9657;45.940;12.840;2022-08-21T14:07:02;28.10;50.20
19050;DHT22;9657;45.940;12.840;2022-08-21T14:09:31;28.10;50.20
19050;DHT22;9657;45.940;12.840;2022-08-21T14:12:02;28.10;50.20
19050;DHT22;9657;45.940;12.840;2022-08-21T14:14:38;28.00;50.20
19050;DHT22;9657;45.940;12.840;2022-08-21T14:17:09;28.10;50.30
19050;DHT22;9657;45.940;12.840;2022-08-21T14:19:39;28.10;50.30
19050;DHT22;9657;45.940;12.840;2022-08-21T14:22:27;28.10;50.40
19050;DHT22;9657;45.940;12.840;2022-08-21T14:24:59;28.10;50.30
19050;DHT22;9657;45.940;12.840;2022-08-21T14:27:30;28.10;50.30
19050;DHT22;9657;45.940;12.840;2022-08-21T14:30:00;28.10;50.30
19050;DHT22;9657;45.940;12.840;2022-08-21T14:32:28;28.10;50.30
19050;DHT22;9657;45.940;12.840;2022-08-21T14:34:57;28.10;50.30
19050;DHT22;9657;45.940;12.840;2022-08-21T14:37:24;28.10;50.30
19050;DHT22;9657;45.940;12.840;2022-08-21T14:39:52;28.10;50.30
19050;DHT22;9657;45.940;12.840;2022-08-21T14:42:19;28.10;50.30
19050;DHT22;9657;45.940;12.840;2022-08-21T14:44:48;28.10;50.30
19050;DHT22;9657;45.940;12.840;2022-08-21T14:47:15;28.10;50.30
19050;DHT22;9657;45.940;12.840;2022-08-21T14:49:42;28.10;50.30
19050;DHT22;9657;45.940;12.840;2022-08-21T14:52:09;28.10;50.30
19050;DHT22;9657;45.940;12.840;2022-08-21T14:54:36;28.10;50.30
19050;DHT22;9657;45.940;12.840;2022-08-21T14:57:06;28.10;50.30
19050;DHT22;9657;45.940;12.840;2022-08-21T14:59:34;28.20;50.40
19050;DHT22;9657;45.940;12.840;2022-08-21T15:02:04;28.10;50.30
19050;DHT22;9657;45.940;12.840;2022-08-21T15:04:31;28.20;50.30
19050;DHT22;9657;45.940;12.840;2022-08-21T15:06:58;28.20;50.40
19050;DHT22;9657;45.940;12.840;2022-08-21T15:09:26;28.10;50.40
19050;DHT22;9657;45.940;12.840;2022-08-21T15:11:56;28.20;50.40
19050;DHT22;9657;45.940;12.840;2022-08-21T15:14:26;28.20;50.40
19050;DHT22;9657;45.940;12.840;2022-08-21T15:16:53;28.20;50.40
19050;DHT22;9657;45.940;12.840;2022-08-21T15:19:22;28.10;50.30
19050;DHT22;9657;45.940;12.840;2022-08-21T15:21:49;28.20;50.40
19050;DHT22;9657;45.940;12.840;2022-08-21T15:24:16;28.20;50.40
19050;DHT22;9657;45.940;12.840;2022-08-21T15:26:43;28.20;50.40
19050;DHT22;9657;45.940;12.840;2022-08-21T15:29:10;28.20;50.40
19050;DHT22;9657;45.940;12.840;2022-08-21T15:31:50;28.20;50.40
19050;DHT22;9657;45.940;12.840;2022-08-21T15:34:18;28.20;50.50
19050;DHT22;9657;45.940;12.840;2022-08-21T15:36:47;28.20;50.50
19050;DHT22;9657;45.940;12.840;2022-08-21T15:39:14;28.20;50.60
19050;DHT22;9657;45.940;12.840;2022-08-21T15:41:41;28.20;50.50
19050;DHT22;9657;45.940;12.840;2022-08-21T15:44:09;28.20;50.50
19050;DHT22;9657;45.940;12.840;2022-08-21T15:46:38;28.20;50.60
19050;DHT22;9657;45.940;12.840;2022-08-21T15:49:06;28.20;50.60
19050;DHT22;9657;45.940;12.840;2022-08-21T15:51:33;28.20;50.60
19050;DHT22;9657;45.940;12.840;2022-08-21T15:54:02;28.20;50.60
19050;DHT22;9657;45.940;12.840;2022-08-21T15:56:36;28.20;50.60